createdAt,value
2018-07-12T00:00:53.888Z,100333.94
2018-07-12T00:01:58.332Z,100335.61
2018-07-12T00:03:02.810Z,100336.97
2018-07-12T00:04:07.598Z,100334.77
2018-07-12T00:05:12.555Z,100339.98
2018-07-12T00:06:17.037Z,100336.86
2018-07-12T00:07:21.239Z,100335.52
2018-07-12T00:08:25.717Z,100330.84
2018-07-12T00:09:30.199Z,100335.38
2018-07-12T00:10:34.667Z,100336.04
2018-07-12T00:11:39.111Z,100338.70
2018-07-12T00:12:43.568Z,100334.41
2018-07-12T00:13:48.008Z,100333.61
2018-07-12T00:14:52.480Z,100327.12
2018-07-12T00:15:56.908Z,100328.81
2018-07-12T00:17:01.365Z,100323.34
2018-07-12T00:18:05.858Z,100327.47
2018-07-12T00:19:10.328Z,100329.46
2018-07-12T00:20:14.819Z,100334.72
2018-07-12T00:21:19.240Z,100333.12
2018-07-12T00:22:23.728Z,100334.95
2018-07-12T00:23:28.224Z,100331.16
2018-07-12T00:24:32.730Z,100331.09
2018-07-12T00:25:36.964Z,100344.42
2018-07-12T00:26:41.479Z,100332.18
2018-07-12T00:27:45.948Z,100330.89
2018-07-12T00:28:50.400Z,100332.48
2018-07-12T00:29:54.886Z,100331.11
2018-07-12T00:30:59.353Z,100324.63
2018-07-12T00:32:03.818Z,100324.98
2018-07-12T00:33:08.312Z,100324.78
2018-07-12T00:34:12.777Z,100325.14
2018-07-12T00:35:17.813Z,100322.02
2018-07-12T00:36:23.749Z,100326.11
2018-07-12T00:37:28.284Z,100328.47
2018-07-12T00:38:32.724Z,100326.14
2018-07-12T00:39:37.209Z,100324.27
2018-07-12T00:40:41.689Z,100319.78
2018-07-12T00:41:46.144Z,100320.36
2018-07-12T00:42:50.730Z,100326.19
2018-07-12T00:43:55.172Z,100323.86
2018-07-12T00:44:59.415Z,100321.89
2018-07-12T00:46:03.918Z,100318.83
2018-07-12T00:47:08.392Z,100317.23
2018-07-12T00:48:12.848Z,100318.42
2018-07-12T00:49:17.342Z,100315.28
2018-07-12T00:50:21.814Z,100312.05
2018-07-12T00:51:26.266Z,100314.08
2018-07-12T00:52:30.741Z,100313.32
2018-07-12T00:53:35.215Z,100315.72
2018-07-12T00:54:39.705Z,100316.78
2018-07-12T00:55:44.187Z,100316.42
2018-07-12T00:56:48.635Z,100314.72
2018-07-12T00:57:53.120Z,100318.96
2018-07-12T00:58:57.588Z,100319.49
2018-07-12T01:00:02.081Z,100320.73
2018-07-12T01:01:06.555Z,100314.47
2018-07-12T01:02:10.577Z,100317.00
2018-07-12T01:03:15.382Z,100321.38
2018-07-12T01:04:19.852Z,100317.14
2018-07-12T01:05:25.214Z,100317.42
2018-07-12T01:06:30.238Z,100312.21
2018-07-12T01:07:35.237Z,100312.09
2018-07-12T01:08:39.689Z,100314.58
2018-07-12T01:09:44.155Z,100318.03
2018-07-12T01:10:48.641Z,100313.69
2018-07-12T01:11:53.117Z,100319.74
2018-07-12T01:12:57.661Z,100316.04
2018-07-12T01:14:02.201Z,100321.63
2018-07-12T01:15:06.697Z,100312.83
2018-07-12T01:16:11.169Z,100315.25
2018-07-12T01:17:15.651Z,100317.45
2018-07-12T01:18:20.135Z,100315.33
2018-07-12T01:19:24.652Z,100313.66
2018-07-12T01:20:29.140Z,100315.57
2018-07-12T01:21:33.618Z,100317.59
2018-07-12T01:22:38.065Z,100316.33
2018-07-12T01:23:42.549Z,100310.83
2018-07-12T01:24:47.041Z,100311.64
2018-07-12T01:25:51.528Z,100311.42
2018-07-12T01:26:55.973Z,100311.43
2018-07-12T01:28:00.469Z,100313.39
2018-07-12T01:29:04.932Z,100316.64
2018-07-12T01:30:09.382Z,100312.30
2018-07-12T01:31:13.845Z,100310.84
2018-07-12T01:32:18.332Z,100310.25
2018-07-12T01:33:22.827Z,100308.96
2018-07-12T01:34:27.284Z,100311.48
2018-07-12T01:35:31.772Z,100303.80
2018-07-12T01:36:36.276Z,100305.56
2018-07-12T01:37:41.264Z,100306.48
2018-07-12T01:38:46.272Z,100305.56
2018-07-12T01:39:50.696Z,100307.77
2018-07-12T01:40:55.165Z,100302.25
2018-07-12T01:41:59.644Z,100304.85
2018-07-12T01:43:04.121Z,100305.53
2018-07-12T01:44:08.574Z,100310.58
2018-07-12T01:45:13.067Z,100309.75
2018-07-12T01:46:17.545Z,100305.52
2018-07-12T01:47:22.041Z,100309.36
2018-07-12T01:48:26.493Z,100303.81
2018-07-12T01:49:30.951Z,100309.09
2018-07-12T01:50:35.412Z,100306.70
2018-07-12T01:51:39.839Z,100312.47
2018-07-12T01:52:44.277Z,100308.55
2018-07-12T01:53:48.729Z,100309.27
2018-07-12T01:54:53.216Z,100307.87
2018-07-12T01:55:57.709Z,100313.12
2018-07-12T01:57:02.159Z,100311.80
2018-07-12T01:58:06.668Z,100310.12
2018-07-12T01:59:11.106Z,100312.13
2018-07-12T02:00:15.545Z,100312.94
2018-07-12T02:01:20.008Z,100312.19
2018-07-12T02:02:24.532Z,100314.01
2018-07-12T02:03:28.950Z,100314.08
2018-07-12T02:04:33.417Z,100314.94
2018-07-12T02:05:37.894Z,100315.26
2018-07-12T02:06:42.334Z,100315.86
2018-07-12T02:07:46.757Z,100315.36
2018-07-12T02:08:51.922Z,100313.41
2018-07-12T02:09:56.930Z,100316.28
2018-07-12T02:11:01.397Z,100309.98
2018-07-12T02:12:05.853Z,100311.70
2018-07-12T02:13:10.340Z,100312.20
2018-07-12T02:14:14.785Z,100312.54
2018-07-12T02:15:19.244Z,100312.23
2018-07-12T02:16:23.726Z,100310.89
2018-07-12T02:17:28.152Z,100312.42
2018-07-12T02:18:32.601Z,100307.86
2018-07-12T02:19:37.041Z,100305.14
2018-07-12T02:20:41.487Z,100308.47
2018-07-12T02:21:45.965Z,100306.23
2018-07-12T02:22:50.440Z,100312.44
2018-07-12T02:23:54.924Z,100311.14
2018-07-12T02:24:59.384Z,100309.34
2018-07-12T02:26:03.838Z,100309.96
2018-07-12T02:27:08.283Z,100309.88
2018-07-12T02:28:12.737Z,100312.28
2018-07-12T02:29:17.180Z,100306.48
2018-07-12T02:30:21.660Z,100303.97
2018-07-12T02:31:26.144Z,100307.21
2018-07-12T02:32:30.680Z,100307.52
2018-07-12T02:33:35.117Z,100309.88
2018-07-12T02:34:39.582Z,100311.66
2018-07-12T02:35:44.048Z,100310.23
2018-07-12T02:36:48.498Z,100312.86
2018-07-12T02:37:52.949Z,100316.00
2018-07-12T02:38:57.417Z,100314.02
2018-07-12T02:40:02.284Z,100315.18
2018-07-12T02:41:07.280Z,100310.34
2018-07-12T02:42:11.704Z,100310.09
2018-07-12T02:43:16.205Z,100305.86
2018-07-12T02:44:20.694Z,100303.06
2018-07-12T02:45:25.167Z,100298.19
2018-07-12T02:46:29.638Z,100308.33
2018-07-12T02:47:34.060Z,100302.98
2018-07-12T02:48:38.522Z,100303.80
2018-07-12T02:49:42.999Z,100299.80
2018-07-12T02:50:47.444Z,100298.59
2018-07-12T02:51:51.928Z,100295.02
2018-07-12T02:52:56.413Z,100291.63
2018-07-12T02:54:00.833Z,100291.81
2018-07-12T02:55:05.295Z,100304.36
2018-07-12T02:56:09.760Z,100301.16
2018-07-12T02:57:14.281Z,100298.10
2018-07-12T02:58:18.746Z,100289.86
2018-07-12T02:59:23.242Z,100295.28
2018-07-12T03:00:27.713Z,100294.94
2018-07-12T03:01:32.269Z,100301.89
2018-07-12T03:02:36.940Z,100298.47
2018-07-12T03:03:41.407Z,100294.52
2018-07-12T03:04:45.895Z,100296.30
2018-07-12T03:05:50.364Z,100291.61
2018-07-12T03:06:54.932Z,100297.02
2018-07-12T03:07:59.387Z,100294.61
2018-07-12T03:09:03.608Z,100292.11
2018-07-12T03:10:08.036Z,100288.61
2018-07-12T03:11:12.881Z,100291.66
2018-07-12T03:12:17.956Z,100292.47
2018-07-12T03:13:22.437Z,100291.73
2018-07-12T03:14:26.884Z,100294.33
2018-07-12T03:15:31.366Z,100298.80
2018-07-12T03:16:35.846Z,100295.77
2018-07-12T03:17:40.286Z,100300.80
2018-07-12T03:18:44.724Z,100300.26
2018-07-12T03:19:49.176Z,100291.86
2018-07-12T03:20:53.603Z,100297.94
2018-07-12T03:21:58.081Z,100292.50
2018-07-12T03:23:02.537Z,100300.89
2018-07-12T03:24:06.964Z,100294.13
2018-07-12T03:25:11.380Z,100300.26
2018-07-12T03:26:15.870Z,100294.53
2018-07-12T03:27:20.337Z,100293.16
2018-07-12T03:28:24.815Z,100289.86
2018-07-12T03:29:29.281Z,100292.70
2018-07-12T03:30:33.720Z,100293.42
2018-07-12T03:31:38.164Z,100293.98
2018-07-12T03:32:42.636Z,100290.99
2018-07-12T03:33:47.079Z,100295.91
2018-07-12T03:34:51.574Z,100298.41
2018-07-12T03:35:56.008Z,100291.45
2018-07-12T03:37:00.524Z,100296.73
2018-07-12T03:38:05.018Z,100299.08
2018-07-12T03:39:09.447Z,100298.91
2018-07-12T03:40:13.887Z,100293.91
2018-07-12T03:41:18.380Z,100299.58
2018-07-12T03:42:23.368Z,100296.94
2018-07-12T03:43:27.933Z,100296.69
2018-07-12T03:44:32.376Z,100302.63
2018-07-12T03:45:37.619Z,100303.05
2018-07-12T03:46:42.256Z,100299.53
2018-07-12T03:47:47.135Z,100302.50
2018-07-12T03:48:52.089Z,100302.14
2018-07-12T03:49:57.031Z,100304.05
2018-07-12T03:51:01.735Z,100304.42
2018-07-12T03:52:06.766Z,100300.40
2018-07-12T03:53:11.808Z,100297.58
2018-07-12T03:54:16.644Z,100303.56
2018-07-12T03:55:21.684Z,100295.80
2018-07-12T03:56:26.718Z,100300.40
2018-07-12T03:57:32.036Z,100302.03
2018-07-12T03:58:36.973Z,100300.47
2018-07-12T03:59:41.989Z,100302.60
2018-07-12T04:00:47.067Z,100303.00
2018-07-12T04:01:52.043Z,100301.72
2018-07-12T04:02:57.066Z,100300.41
2018-07-12T04:04:02.055Z,100301.18
2018-07-12T04:05:07.152Z,100304.14
2018-07-12T04:06:12.089Z,100299.47
2018-07-12T04:07:17.085Z,100298.48
2018-07-12T04:08:22.103Z,100298.80
2018-07-12T04:09:27.116Z,100303.45
2018-07-12T04:10:32.354Z,100305.73
2018-07-12T04:11:37.461Z,100304.02
2018-07-12T04:12:42.515Z,100301.29
2018-07-12T04:13:47.662Z,100303.03
2018-07-12T04:14:52.749Z,100308.59
2018-07-12T04:15:57.880Z,100308.41
2018-07-12T04:17:03.018Z,100305.39
2018-07-12T04:18:07.927Z,100306.81
2018-07-12T04:19:13.225Z,100308.27
2018-07-12T04:20:18.910Z,100307.84
2018-07-12T04:21:23.901Z,100310.36
2018-07-12T04:22:29.454Z,100307.77
2018-07-12T04:23:34.568Z,100306.42
2018-07-12T04:24:39.770Z,100308.59
2018-07-12T04:25:44.703Z,100306.29
2018-07-12T04:26:49.939Z,100305.98
2018-07-12T04:27:55.357Z,100298.28
2018-07-12T04:29:01.074Z,100299.67
2018-07-12T04:30:06.413Z,100296.42
2018-07-12T04:31:11.417Z,100299.30
2018-07-12T04:32:16.651Z,100297.75
2018-07-12T04:33:21.591Z,100295.99
2018-07-12T04:34:26.650Z,100297.00
2018-07-12T04:35:31.818Z,100289.63
2018-07-12T04:36:36.741Z,100292.84
2018-07-12T04:37:41.535Z,100300.93
2018-07-12T04:38:46.182Z,100293.59
2018-07-12T04:39:50.649Z,100299.16
2018-07-12T04:40:55.122Z,100300.00
2018-07-12T04:41:59.564Z,100300.63
2018-07-12T04:43:04.067Z,100296.82
2018-07-12T04:44:08.584Z,100299.24
2018-07-12T04:45:13.079Z,100296.04
2018-07-12T04:46:17.561Z,100299.66
2018-07-12T04:47:22.076Z,100295.47
2018-07-12T04:48:26.586Z,100293.97
2018-07-12T04:49:31.065Z,100298.34
2018-07-12T04:50:35.506Z,100289.03
2018-07-12T04:51:39.984Z,100290.82
2018-07-12T04:52:44.501Z,100290.00
2018-07-12T04:53:48.988Z,100291.12
2018-07-12T04:54:53.496Z,100286.92
2018-07-12T04:55:57.956Z,100297.19
2018-07-12T04:57:02.452Z,100295.80
2018-07-12T04:58:06.950Z,100295.28
2018-07-12T04:59:11.676Z,100299.45
2018-07-12T05:00:16.626Z,100298.77
2018-07-12T05:01:21.184Z,100296.86
2018-07-12T05:02:25.705Z,100294.34
2018-07-12T05:03:30.217Z,100286.66
2018-07-12T05:04:34.688Z,100294.06
2018-07-12T05:05:39.186Z,100293.45
2018-07-12T05:06:43.789Z,100282.03
2018-07-12T05:07:48.279Z,100289.27
2018-07-12T05:08:52.747Z,100288.03
2018-07-12T05:09:57.244Z,100291.34
2018-07-12T05:11:01.789Z,100285.63
2018-07-12T05:12:06.296Z,100282.85
2018-07-12T05:13:10.773Z,100283.48
2018-07-12T05:14:15.278Z,100289.84
2018-07-12T05:15:19.772Z,100277.23
2018-07-12T05:16:24.302Z,100283.71
2018-07-12T05:17:28.785Z,100278.90
2018-07-12T05:18:33.280Z,100280.28
2018-07-12T05:19:37.772Z,100276.41
2018-07-12T05:20:42.325Z,100270.93
2018-07-12T05:21:46.805Z,100271.44
2018-07-12T05:22:51.281Z,100275.55
2018-07-12T05:23:55.774Z,100264.45
2018-07-12T05:25:00.233Z,100260.53
2018-07-12T05:26:04.944Z,100255.98
2018-07-12T05:27:09.530Z,100251.37
2018-07-12T05:28:14.045Z,100252.77
2018-07-12T05:29:18.606Z,100249.93
2018-07-12T05:30:23.061Z,100256.06
2018-07-12T05:31:28.304Z,100256.73
2018-07-12T05:32:32.784Z,100263.52
2018-07-12T05:33:37.299Z,100264.37
2018-07-12T05:34:41.830Z,100268.41
2018-07-12T05:35:47.549Z,100266.59
2018-07-12T05:36:52.753Z,100271.44
2018-07-12T05:37:58.496Z,100275.21
2018-07-12T05:39:04.083Z,100270.24
2018-07-12T05:40:10.606Z,100274.05
2018-07-12T05:41:17.856Z,100272.65
2018-07-12T05:42:23.579Z,100272.45
2018-07-12T05:43:29.300Z,100269.45
2018-07-12T05:44:35.007Z,100266.86
2018-07-12T05:45:40.699Z,100267.37
2018-07-12T05:46:46.554Z,100267.61
2018-07-12T05:47:52.389Z,100266.71
2018-07-12T05:48:58.661Z,100276.45
2018-07-12T05:50:04.941Z,100269.81
2018-07-12T05:51:10.885Z,100274.31
2018-07-12T05:52:17.144Z,100276.69
2018-07-12T05:53:23.444Z,100275.06
2018-07-12T05:54:29.417Z,100272.92
2018-07-12T05:55:35.704Z,100276.91
2018-07-12T05:56:41.961Z,100281.69
2018-07-12T05:57:48.252Z,100274.81
2018-07-12T05:58:54.573Z,100277.71
2018-07-12T06:00:00.582Z,100280.20
2018-07-12T06:01:05.924Z,100275.10
2018-07-12T06:02:15.265Z,100285.23
2018-07-12T06:03:20.933Z,100281.55
2018-07-12T06:04:26.929Z,100280.58
2018-07-12T06:05:32.954Z,100281.57
2018-07-12T06:06:39.160Z,100286.73
2018-07-12T06:07:46.232Z,100287.34
2018-07-12T06:08:52.582Z,100283.63
2018-07-12T06:09:58.834Z,100282.13
2018-07-12T06:11:05.109Z,100280.77
2018-07-12T06:12:11.109Z,100294.25
2018-07-12T06:13:17.382Z,100288.22
2018-07-12T06:14:23.861Z,100296.42
2018-07-12T06:15:30.113Z,100295.34
2018-07-12T06:16:36.097Z,100294.13
2018-07-12T06:17:42.156Z,100292.96
2018-07-12T06:18:48.492Z,100302.08
2018-07-12T06:19:54.942Z,100307.48
2018-07-12T06:21:01.200Z,100302.86
2018-07-12T06:22:07.456Z,100304.30
2018-07-12T06:23:13.730Z,100303.56
2018-07-12T06:24:20.059Z,100306.56
2018-07-12T06:25:26.333Z,100307.76
2018-07-12T06:26:32.576Z,100310.86
2018-07-12T06:27:38.860Z,100307.33
2018-07-12T06:28:45.161Z,100305.47
2018-07-12T06:29:51.462Z,100311.84
2018-07-12T06:30:57.925Z,100301.94
2018-07-12T06:32:04.158Z,100305.83
2018-07-12T06:33:10.176Z,100312.58
2018-07-12T06:34:16.465Z,100313.98
2018-07-12T06:35:22.925Z,100315.73
2018-07-12T06:36:29.208Z,100314.64
2018-07-12T06:37:35.440Z,100323.64
2018-07-12T06:38:41.729Z,100323.01
2018-07-12T06:39:47.688Z,100320.80
2018-07-12T06:40:53.924Z,100321.84
2018-07-12T06:41:59.906Z,100316.41
2018-07-12T06:43:06.203Z,100320.80
2018-07-12T06:44:12.976Z,100310.24
2018-07-12T06:45:19.258Z,100313.84
2018-07-12T06:46:25.265Z,100310.55
2018-07-12T06:47:31.534Z,100313.36
2018-07-12T06:48:37.799Z,100319.56
2018-07-12T06:49:44.102Z,100319.30
2018-07-12T06:50:50.377Z,100319.19
2018-07-12T06:51:56.291Z,100313.87
2018-07-12T06:53:02.560Z,100318.64
2018-07-12T06:54:08.498Z,100319.05
2018-07-12T06:55:14.505Z,100320.19
2018-07-12T06:56:20.817Z,100318.71
2018-07-12T06:57:27.174Z,100320.69
2018-07-12T06:58:33.461Z,100323.17
2018-07-12T06:59:40.377Z,100321.33
2018-07-12T07:00:46.644Z,100321.19
2018-07-12T07:01:52.920Z,100313.55
2018-07-12T07:02:59.236Z,100317.10
2018-07-12T07:04:05.217Z,100320.88
2018-07-12T07:05:11.481Z,100312.78
2018-07-12T07:06:17.811Z,100314.42
2018-07-12T07:07:24.095Z,100320.09
2018-07-12T07:08:30.359Z,100315.46
2018-07-12T07:09:36.368Z,100321.34
2018-07-12T07:10:42.643Z,100315.33
2018-07-12T07:11:48.929Z,100319.55
2018-07-12T07:12:54.838Z,100315.88
2018-07-12T07:14:00.807Z,100317.69
2018-07-12T07:15:07.129Z,100319.60
2018-07-12T07:16:13.105Z,100318.95
2018-07-12T07:17:19.401Z,100313.25
2018-07-12T07:18:25.656Z,100318.06
2018-07-12T07:19:31.970Z,100315.23
2018-07-12T07:20:38.269Z,100314.12
2018-07-12T07:21:44.511Z,100309.27
2018-07-12T07:22:50.507Z,100312.45
2018-07-12T07:23:56.518Z,100307.71
2018-07-12T07:25:02.877Z,100316.55
2018-07-12T07:26:08.522Z,100313.06
2018-07-12T07:27:14.785Z,100313.24
2018-07-12T07:28:21.080Z,100311.15
2018-07-12T07:29:27.378Z,100307.36
2018-07-12T07:30:33.680Z,100317.91
2018-07-12T07:31:39.981Z,100316.32
2018-07-12T07:32:46.248Z,100317.13
2018-07-12T07:33:52.553Z,100312.03
2018-07-12T07:34:58.482Z,100312.14
2018-07-12T07:36:05.647Z,100316.85
2018-07-12T07:37:11.966Z,100314.13
2018-07-12T07:38:18.246Z,100312.84
2018-07-12T07:39:24.579Z,100320.56
2018-07-12T07:40:30.873Z,100318.47
2018-07-12T07:41:37.160Z,100317.20
2018-07-12T07:42:43.429Z,100317.12
2018-07-12T07:43:49.737Z,100326.86
2018-07-12T07:44:56.044Z,100318.75
2018-07-12T07:46:02.039Z,100317.01
2018-07-12T07:47:08.361Z,100317.86
2018-07-12T07:48:14.705Z,100318.37
2018-07-12T07:49:21.032Z,100317.20
2018-07-12T07:50:27.513Z,100317.70
2018-07-12T07:51:33.775Z,100316.11
2018-07-12T07:52:40.922Z,100317.12
2018-07-12T07:53:47.231Z,100315.34
2018-07-12T07:54:53.530Z,100313.12
2018-07-12T07:55:59.771Z,100312.11
2018-07-12T07:57:05.885Z,100311.27
2018-07-12T07:58:12.345Z,100310.44
2018-07-12T07:59:18.649Z,100312.00
2018-07-12T08:00:24.928Z,100310.20
2018-07-12T08:01:30.923Z,100304.27
2018-07-12T08:02:37.163Z,100308.66
2018-07-12T08:03:43.540Z,100302.28
2018-07-12T08:04:49.809Z,100308.62
2018-07-12T08:05:55.555Z,100311.22
2018-07-12T08:07:01.915Z,100307.44
2018-07-12T08:08:08.280Z,100311.94
2018-07-12T08:09:14.549Z,100312.48
2018-07-12T08:10:20.593Z,100307.67
2018-07-12T08:11:26.828Z,100312.22
2018-07-12T08:12:32.824Z,100307.36
2018-07-12T08:13:38.444Z,100308.11
2018-07-12T08:14:44.743Z,100307.87
2018-07-12T08:15:51.032Z,100307.31
2018-07-12T08:16:57.298Z,100310.26
2018-07-12T08:18:03.624Z,100315.86
2018-07-12T08:19:09.595Z,100312.75
2018-07-12T08:20:15.912Z,100314.92
2018-07-12T08:21:22.688Z,100312.08
2018-07-12T08:22:28.928Z,100312.09
2018-07-12T08:23:35.047Z,100310.69
2018-07-12T08:24:41.239Z,100309.99
2018-07-12T08:25:46.904Z,100310.48
2018-07-12T08:26:52.915Z,100317.97
2018-07-12T08:27:59.529Z,100316.30
2018-07-12T08:29:05.968Z,100308.92
2018-07-12T08:30:12.269Z,100310.58
2018-07-12T08:31:18.385Z,100312.64
2018-07-12T08:32:24.525Z,100310.31
2018-07-12T08:33:30.866Z,100306.30
2018-07-12T08:34:37.053Z,100307.28
2018-07-12T08:35:43.385Z,100309.62
2018-07-12T08:36:49.326Z,100312.94
2018-07-12T08:37:55.563Z,100310.27
2018-07-12T08:39:01.824Z,100316.72
2018-07-12T08:40:08.536Z,100307.67
2018-07-12T08:41:14.528Z,100300.44
2018-07-12T08:42:20.527Z,100311.17
2018-07-12T08:43:27.012Z,100310.47
2018-07-12T08:44:33.038Z,100306.73
2018-07-12T08:45:39.331Z,100305.53
2018-07-12T08:46:45.616Z,100307.23
2018-07-12T08:47:51.636Z,100313.51
2018-07-12T08:48:57.888Z,100306.42
2018-07-12T08:50:03.835Z,100309.45
2018-07-12T08:51:10.097Z,100305.53
2018-07-12T08:52:16.346Z,100303.41
2018-07-12T08:53:22.602Z,100307.31
2018-07-12T08:54:28.241Z,100308.20
2018-07-12T08:55:34.512Z,100306.15
2018-07-12T08:56:40.814Z,100306.59
2018-07-12T08:57:47.089Z,100308.05
2018-07-12T08:58:53.328Z,100307.92
2018-07-12T08:59:59.615Z,100305.02
2018-07-12T09:01:05.987Z,100306.53
2018-07-12T09:02:12.283Z,100308.67
2018-07-12T09:03:18.560Z,100308.67
2018-07-12T09:04:25.830Z,100306.70
2018-07-12T09:05:32.627Z,100307.98
2018-07-12T09:06:38.933Z,100307.43
2018-07-12T09:07:45.210Z,100299.87
2018-07-12T09:08:51.493Z,100304.02
2018-07-12T09:09:57.828Z,100303.20
2018-07-12T09:11:04.154Z,100303.88
2018-07-12T09:12:10.433Z,100307.50
2018-07-12T09:13:16.681Z,100301.65
2018-07-12T09:14:22.984Z,100302.64
2018-07-12T09:15:29.254Z,100303.49
2018-07-12T09:16:35.265Z,100302.86
2018-07-12T09:17:41.548Z,100307.12
2018-07-12T09:18:47.847Z,100303.92
2018-07-12T09:19:54.557Z,100303.23
2018-07-12T09:21:01.613Z,100300.63
2018-07-12T09:22:07.938Z,100310.80
2018-07-12T09:23:14.220Z,100307.16
2018-07-12T09:24:20.489Z,100301.22
2018-07-12T09:25:26.737Z,100311.16
2018-07-12T09:26:33.281Z,100307.98
2018-07-12T09:27:39.541Z,100308.48
2018-07-12T09:28:45.574Z,100303.85
2018-07-12T09:29:51.859Z,100309.22
2018-07-12T09:30:58.140Z,100311.13
2018-07-12T09:32:04.446Z,100307.91
2018-07-12T09:33:10.708Z,100307.34
2018-07-12T09:34:17.023Z,100305.59
2018-07-12T09:35:23.341Z,100307.11
2018-07-12T09:36:29.648Z,100311.91
2018-07-12T09:37:35.960Z,100305.59
2018-07-12T09:38:41.863Z,100305.07
2018-07-12T09:39:48.188Z,100305.30
2018-07-12T09:40:54.656Z,100302.08
2018-07-12T09:42:00.545Z,100310.89
2018-07-12T09:43:06.569Z,100304.42
2018-07-12T09:44:12.860Z,100303.80
2018-07-12T09:45:19.163Z,100306.45
2018-07-12T09:46:25.472Z,100304.51
2018-07-12T09:47:31.772Z,100304.53
2018-07-12T09:48:38.268Z,100301.45
2018-07-12T09:49:44.539Z,100296.69
2018-07-12T09:50:50.518Z,100302.86
2018-07-12T09:51:56.517Z,100297.82
2018-07-12T09:53:02.098Z,100298.05
2018-07-12T09:54:08.098Z,100300.17
2018-07-12T09:55:13.772Z,100299.78
2018-07-12T09:56:21.187Z,100300.57
2018-07-12T09:57:38.657Z,100306.33
2018-07-12T09:58:44.323Z,100299.41
2018-07-12T09:59:50.644Z,100299.96
2018-07-12T10:00:56.690Z,100304.22
2018-07-12T10:03:34.587Z,100300.38
2018-07-12T10:04:40.662Z,100298.14
2018-07-12T10:05:46.722Z,100299.74
2018-07-12T10:06:52.761Z,100306.59
2018-07-12T10:07:58.803Z,100301.16
2018-07-12T10:09:04.159Z,100305.70
2018-07-12T10:10:10.179Z,100305.67
2018-07-12T10:11:15.922Z,100300.41
2018-07-12T10:12:21.993Z,100299.97
2018-07-12T10:13:28.052Z,100308.53
2018-07-12T10:14:34.128Z,100310.02
2018-07-12T10:15:40.155Z,100301.13
2018-07-12T10:16:46.191Z,100310.06
2018-07-12T10:17:51.973Z,100307.78
2018-07-12T10:18:58.276Z,100306.84
2018-07-12T10:20:03.957Z,100310.20
2018-07-12T10:21:10.228Z,100313.14
2018-07-12T10:22:17.145Z,100314.55
2018-07-12T10:23:24.208Z,100309.80
2018-07-12T10:24:30.477Z,100307.09
2018-07-12T10:25:36.765Z,100301.34
2018-07-12T10:26:43.073Z,100314.14
2018-07-12T10:27:49.368Z,100308.88
2018-07-12T10:28:55.658Z,100306.41
2018-07-12T10:30:01.960Z,100309.77
2018-07-12T10:31:08.253Z,100308.31
2018-07-12T10:32:14.596Z,100314.16
2018-07-12T10:33:20.891Z,100310.35
2018-07-12T10:34:27.340Z,100293.88
2018-07-12T10:35:33.454Z,100303.02
2018-07-12T10:36:39.777Z,100304.75
2018-07-12T10:37:46.053Z,100307.21
2018-07-12T10:38:52.513Z,100297.23
2018-07-12T10:39:58.816Z,100299.66
2018-07-12T10:41:05.077Z,100306.05
2018-07-12T10:42:11.370Z,100301.12
2018-07-12T10:43:17.629Z,100308.57
2018-07-12T10:44:23.917Z,100298.88
2018-07-12T10:45:30.187Z,100298.11
2018-07-12T10:46:36.215Z,100302.48
2018-07-12T10:47:42.484Z,100306.97
2018-07-12T10:48:48.783Z,100303.60
2018-07-12T10:49:55.075Z,100302.88
2018-07-12T10:51:01.359Z,100302.84
2018-07-12T10:52:07.095Z,100298.53
2018-07-12T10:53:13.420Z,100299.93
2018-07-12T10:54:19.684Z,100310.11
2018-07-12T10:55:25.936Z,100301.84
2018-07-12T10:56:32.206Z,100309.20
2018-07-12T10:57:39.631Z,100300.14
2018-07-12T10:58:45.971Z,100304.44
2018-07-12T10:59:52.212Z,100295.72
2018-07-12T11:00:58.512Z,100304.81
2018-07-12T11:02:06.109Z,100295.72
2018-07-12T11:03:12.396Z,100292.47
2018-07-12T11:04:18.690Z,100291.16
2018-07-12T11:05:24.938Z,100297.37
2018-07-12T11:06:31.262Z,100295.71
2018-07-12T11:07:38.297Z,100297.07
2018-07-12T11:08:44.577Z,100299.25
2018-07-12T11:09:50.849Z,100303.51
2018-07-12T11:10:57.103Z,100299.93
2018-07-12T11:12:03.416Z,100298.44
2018-07-12T11:13:08.994Z,100300.77
2018-07-12T11:14:15.320Z,100301.55
2018-07-12T11:15:22.336Z,100301.42
2018-07-12T11:16:28.584Z,100299.17
2018-07-12T11:17:34.880Z,100302.61
2018-07-12T11:18:41.150Z,100300.65
2018-07-12T11:19:47.032Z,100300.63
2018-07-12T11:20:53.251Z,100305.84
2018-07-12T11:21:59.241Z,100298.91
2018-07-12T11:23:05.201Z,100306.04
2018-07-12T11:24:11.432Z,100306.36
2018-07-12T11:25:17.726Z,100304.53
2018-07-12T11:26:23.732Z,100306.66
2018-07-12T11:27:30.030Z,100303.54
2018-07-12T11:28:36.281Z,100307.30
2018-07-12T11:29:44.942Z,100302.00
2018-07-12T11:30:51.892Z,100303.20
2018-07-12T11:31:58.175Z,100299.30
2018-07-12T11:33:03.768Z,100302.96
2018-07-12T11:34:09.841Z,100300.31
2018-07-12T11:35:16.168Z,100298.30
2018-07-12T11:36:22.415Z,100302.27
2018-07-12T11:37:28.881Z,100297.52
2018-07-12T11:38:34.842Z,100286.59
2018-07-12T11:39:41.116Z,100293.27
2018-07-12T11:40:47.344Z,100296.95
2018-07-12T11:41:53.582Z,100298.18
2018-07-12T11:42:59.848Z,100302.09
2018-07-12T11:44:06.171Z,100297.36
2018-07-12T11:45:12.437Z,100300.89
2018-07-12T11:46:18.680Z,100297.77
2018-07-12T11:47:24.955Z,100304.23
2018-07-12T11:48:31.230Z,100298.95
2018-07-12T11:49:37.459Z,100296.79
2018-07-12T11:50:43.924Z,100296.69
2018-07-12T11:51:50.438Z,100300.63
2018-07-12T11:52:56.776Z,100296.80
2018-07-12T11:54:02.997Z,100300.68
2018-07-12T11:55:09.309Z,100304.00
2018-07-12T11:56:15.571Z,100294.05
2018-07-12T11:57:21.832Z,100296.92
2018-07-12T11:58:27.731Z,100300.74
2018-07-12T11:59:33.976Z,100288.92
2018-07-12T12:00:40.266Z,100293.14
2018-07-12T12:01:46.667Z,100294.13
2018-07-12T12:02:53.129Z,100292.20
2018-07-12T12:03:59.445Z,100293.05
2018-07-12T12:05:06.230Z,100295.95
2018-07-12T12:06:14.695Z,100298.20
2018-07-12T12:07:22.328Z,100291.23
2018-07-12T12:08:29.195Z,100294.03
2018-07-12T12:09:35.875Z,100286.14
2018-07-12T12:10:42.668Z,100295.63
2018-07-12T12:11:49.662Z,100291.75
2018-07-12T12:12:55.846Z,100289.53
2018-07-12T12:14:02.522Z,100289.19
2018-07-12T12:15:09.087Z,100291.31
2018-07-12T12:16:15.659Z,100291.33
2018-07-12T12:17:21.890Z,100297.69
2018-07-12T12:18:28.479Z,100298.61
2018-07-12T12:19:35.285Z,100292.89
2018-07-12T12:20:42.063Z,100289.13
2018-07-12T12:21:49.056Z,100281.42
2018-07-12T12:22:56.581Z,100288.51
2018-07-12T12:24:03.356Z,100285.70
2018-07-12T12:25:10.311Z,100284.01
2018-07-12T12:26:18.210Z,100288.95
2018-07-12T12:27:25.331Z,100280.55
2018-07-12T12:28:33.426Z,100289.50
2018-07-12T12:29:41.283Z,100286.70